sensor_id;sensor_type;location;lat;lon;timestamp;temperature;humidity
31391;DHT22;18022;45.492;11.548;2023-07-30T00:01:56;24.20;99.90
31391;DHT22;18022;45.492;11.548;2023-07-30T00:04:21;24.10;99.90
31391;DHT22;18022;45.492;11.548;2023-07-30T00:06:47;24.20;99.90
31391;DHT22;18022;45.492;11.548;2023-07-30T00:09:13;24.20;99.90
31391;DHT22;18022;45.492;11.548;2023-07-30T00:11:38;24.20;99.90
31391;DHT22;18022;45.492;11.548;2023-07-30T00:14:05;24.20;99.90
31391;DHT22;18022;45.492;11.548;2023-07-30T00:16:31;24.20;99.90
31391;DHT22;18022;45.492;11.548;2023-07-30T00:18:56;24.20;99.90
31391;DHT22;18022;45.492;11.548;2023-07-30T00:21:22;24.20;99.90
31391;DHT22;18022;45.492;11.548;2023-07-30T00:23:48;24.20;99.90
31391;DHT22;18022;45.492;11.548;2023-07-30T00:26:14;24.20;99.90
31391;DHT22;18022;45.492;11.548;2023-07-30T00:28:40;24.30;99.90
31391;DHT22;18022;45.492;11.548;2023-07-30T00:31:05;24.20;99.90
31391;DHT22;18022;45.492;11.548;2023-07-30T00:33:31;24.20;99.90
31391;DHT22;18022;45.492;11.548;2023-07-30T00:35:57;24.20;99.90
31391;DHT22;18022;45.492;11.548;2023-07-30T00:38:22;24.20;99.90
31391;DHT22;18022;45.492;11.548;2023-07-30T00:40:49;24.10;99.90
31391;DHT22;18022;45.492;11.548;2023-07-30T00:43:14;23.60;99.90
31391;DHT22;18022;45.492;11.548;2023-07-30T00:45:42;22.80;99.90
31391;DHT22;18022;45.492;11.548;2023-07-30T00:48:09;21.70;99.90
31391;DHT22;18022;45.492;11.548;2023-07-30T00:50:35;20.80;99.90
31391;DHT22;18022;45.492;11.548;2023-07-30T00:53:01;20.60;99.90
31391;DHT22;18022;45.492;11.548;2023-07-30T00:55:26;20.50;99.90
31391;DHT22;18022;45.492;11.548;2023-07-30T00:57:53;20.40;99.90
31391;DHT22;18022;45.492;11.548;2023-07-30T01:00:19;20.20;99.90
31391;DHT22;18022;45.492;11.548;2023-07-30T01:02:45;20.60;99.90
31391;DHT22;18022;45.492;11.548;2023-07-30T01:05:10;20.50;99.90
31391;DHT22;18022;45.492;11.548;2023-07-30T01:07:36;20.70;99.90
31391;DHT22;18022;45.492;11.548;2023-07-30T01:10:02;20.40;99.90
31391;DHT22;18022;45.492;11.548;2023-07-30T01:12:30;20.50;99.90
31391;DHT22;18022;45.492;11.548;2023-07-30T01:14:57;20.60;99.90
31391;DHT22;18022;45.492;11.548;2023-07-30T01:17:23;20.90;99.90
31391;DHT22;18022;45.492;11.548;2023-07-30T01:19:49;21.00;99.90
31391;DHT22;18022;45.492;11.548;2023-07-30T01:22:15;21.00;99.90
31391;DHT22;18022;45.492;11.548;2023-07-30T01:24:41;20.90;99.90
31391;DHT22;18022;45.492;11.548;2023-07-30T01:27:10;20.90;99.90
31391;DHT22;18022;45.492;11.548;2023-07-30T01:32:06;21.10;99.90
31391;DHT22;18022;45.492;11.548;2023-07-30T01:34:35;21.10;99.90
31391;DHT22;18022;45.492;11.548;2023-07-30T01:37:01;21.10;99.90
31391;DHT22;18022;45.492;11.548;2023-07-30T01:39:27;20.90;99.90
31391;DHT22;18022;45.492;11.548;2023-07-30T01:41:54;20.80;99.90
31391;DHT22;18022;45.492;11.548;2023-07-30T01:44:20;20.80;99.90
31391;DHT22;18022;45.492;11.548;2023-07-30T01:46:46;20.80;99.90
31391;DHT22;18022;45.492;11.548;2023-07-30T01:49:11;20.70;99.90
31391;DHT22;18022;45.492;11.548;2023-07-30T01:51:37;20.80;99.90
31391;DHT22;18022;45.492;11.548;2023-07-30T01:54:03;20.80;99.90
31391;DHT22;18022;45.492;11.548;2023-07-30T01:56:29;20.80;99.90
31391;DHT22;18022;45.492;11.548;2023-07-30T01:58:54;20.80;99.90
31391;DHT22;18022;45.492;11.548;2023-07-30T02:01:20;20.90;99.90
31391;DHT22;18022;45.492;11.548;2023-07-30T02:03:46;21.00;99.90
31391;DHT22;18022;45.492;11.548;2023-07-30T02:06:12;21.00;99.90
31391;DHT22;18022;45.492;11.548;2023-07-30T02:08:38;21.00;99.90
31391;DHT22;18022;45.492;11.548;2023-07-30T02:11:03;21.00;99.90
31391;DHT22;18022;45.492;11.548;2023-07-30T02:13:29;20.90;99.90
31391;DHT22;18022;45.492;11.548;2023-07-30T02:15:55;20.80;99.90
31391;DHT22;18022;45.492;11.548;2023-07-30T02:18:21;20.70;99.90
31391;DHT22;18022;45.492;11.548;2023-07-30T02:20:46;20.70;99.90
31391;DHT22;18022;45.492;11.548;2023-07-30T02:23:14;20.60;99.90
31391;DHT22;18022;45.492;11.548;2023-07-30T02:25:41;20.70;99.90
31391;DHT22;18022;45.492;11.548;2023-07-30T02:28:07;20.80;99.90
31391;DHT22;18022;45.492;11.548;2023-07-30T02:30:33;20.80;99.90
31391;DHT22;18022;45.492;11.548;2023-07-30T02:32:59;20.70;99.90
31391;DHT22;18022;45.492;11.548;2023-07-30T02:35:25;20.70;99.90
31391;DHT22;18022;45.492;11.548;2023-07-30T02:37:51;20.80;99.90
31391;DHT22;18022;45.492;11.548;2023-07-30T02:40:16;20.90;99.90
31391;DHT22;18022;45.492;11.548;2023-07-30T02:42:42;21.00;99.90
31391;DHT22;18022;45.492;11.548;2023-07-30T02:45:08;20.90;99.90
31391;DHT22;18022;45.492;11.548;2023-07-30T02:47:34;20.80;99.90
31391;DHT22;18022;45.492;11.548;2023-07-30T02:50:00;20.80;99.90
31391;DHT22;18022;45.492;11.548;2023-07-30T02:52:25;21.00;99.90
31391;DHT22;18022;45.492;11.548;2023-07-30T02:54:51;21.10;99.90
31391;DHT22;18022;45.492;11.548;2023-07-30T02:57:17;21.10;99.90
31391;DHT22;18022;45.492;11.548;2023-07-30T02:59:42;21.20;99.90
31391;DHT22;18022;45.492;11.548;2023-07-30T03:02:08;21.20;99.90
31391;DHT22;18022;45.492;11.548;2023-07-30T03:04:34;21.30;99.90
31391;DHT22;18022;45.492;11.548;2023-07-30T03:07:00;21.40;99.90
31391;DHT22;18022;45.492;11.548;2023-07-30T03:09:26;21.40;99.90
31391;DHT22;18022;45.492;11.548;2023-07-30T03:11:53;21.30;99.90
31391;DHT22;18022;45.492;11.548;2023-07-30T03:14:19;21.20;99.90
31391;DHT22;18022;45.492;11.548;2023-07-30T03:16:47;21.00;99.90
31391;DHT22;18022;45.492;11.548;2023-07-30T03:19:13;21.00;99.90
31391;DHT22;18022;45.492;11.548;2023-07-30T03:21:38;20.90;99.90
31391;DHT22;18022;45.492;11.548;2023-07-30T03:24:04;20.90;99.90
31391;DHT22;18022;45.492;11.548;2023-07-30T03:26:30;20.90;99.90
31391;DHT22;18022;45.492;11.548;2023-07-30T03:28:56;21.00;99.90
31391;DHT22;18022;45.492;11.548;2023-07-30T03:31:21;21.00;99.90
31391;DHT22;18022;45.492;11.548;2023-07-30T03:33:47;21.10;99.90
31391;DHT22;18022;45.492;11.548;2023-07-30T03:36:13;21.10;99.90
31391;DHT22;18022;45.492;11.548;2023-07-30T03:38:39;21.10;99.90
31391;DHT22;18022;45.492;11.548;2023-07-30T03:41:06;21.20;99.90
31391;DHT22;18022;45.492;11.548;2023-07-30T03:43:32;21.20;99.90
31391;DHT22;18022;45.492;11.548;2023-07-30T03:45:58;21.20;99.90
31391;DHT22;18022;45.492;11.548;2023-07-30T03:48:24;21.20;99.90
31391;DHT22;18022;45.492;11.548;2023-07-30T03:50:50;21.20;99.90
31391;DHT22;18022;45.492;11.548;2023-07-30T03:53:15;21.30;99.90
31391;DHT22;18022;45.492;11.548;2023-07-30T03:55:41;21.30;99.90
31391;DHT22;18022;45.492;11.548;2023-07-30T03:58:07;21.40;99.90
31391;DHT22;18022;45.492;11.548;2023-07-30T04:00:33;21.40;99.90
31391;DHT22;18022;45.492;11.548;2023-07-30T04:02:59;21.50;99.90
31391;DHT22;18022;45.492;11.548;2023-07-30T04:05:24;21.50;99.90
31391;DHT22;18022;45.492;11.548;2023-07-30T04:07:50;21.60;99.90
31391;DHT22;18022;45.492;11.548;2023-07-30T04:10:16;21.70;99.90
31391;DHT22;18022;45.492;11.548;2023-07-30T04:12:42;21.70;99.90
31391;DHT22;18022;45.492;11.548;2023-07-30T04:15:08;21.80;99.90
31391;DHT22;18022;45.492;11.548;2023-07-30T04:17:36;21.90;99.90
31391;DHT22;18022;45.492;11.548;2023-07-30T04:20:02;21.80;99.90
31391;DHT22;18022;45.492;11.548;2023-07-30T04:22:28;21.80;99.90
31391;DHT22;18022;45.492;11.548;2023-07-30T04:24:54;21.80;99.90
31391;DHT22;18022;45.492;11.548;2023-07-30T04:27:19;21.80;99.90
31391;DHT22;18022;45.492;11.548;2023-07-30T04:29:45;21.90;99.90
31391;DHT22;18022;45.492;11.548;2023-07-30T04:32:11;21.90;99.90
31391;DHT22;18022;45.492;11.548;2023-07-30T04:34:36;21.80;99.90
31391;DHT22;18022;45.492;11.548;2023-07-30T04:37:02;21.80;99.90
31391;DHT22;18022;45.492;11.548;2023-07-30T04:39:29;21.80;99.90
31391;DHT22;18022;45.492;11.548;2023-07-30T04:41:55;21.80;99.90
31391;DHT22;18022;45.492;11.548;2023-07-30T04:44:20;21.90;99.90
31391;DHT22;18022;45.492;11.548;2023-07-30T04:46:46;21.90;99.90
31391;DHT22;18022;45.492;11.548;2023-07-30T04:49:12;21.90;99.90
31391;DHT22;18022;45.492;11.548;2023-07-30T04:51:37;22.00;99.90
31391;DHT22;18022;45.492;11.548;2023-07-30T04:54:03;22.10;99.90
31391;DHT22;18022;45.492;11.548;2023-07-30T04:56:29;22.10;99.90
31391;DHT22;18022;45.492;11.548;2023-07-30T04:58:55;22.20;99.90
31391;DHT22;18022;45.492;11.548;2023-07-30T05:01:20;22.30;99.90
31391;DHT22;18022;45.492;11.548;2023-07-30T05:03:46;22.30;99.90
31391;DHT22;18022;45.492;11.548;2023-07-30T05:06:12;22.30;99.90
31391;DHT22;18022;45.492;11.548;2023-07-30T05:08:38;22.30;99.90
31391;DHT22;18022;45.492;11.548;2023-07-30T05:11:03;22.40;99.90
31391;DHT22;18022;45.492;11.548;2023-07-30T05:13:29;22.40;99.90
31391;DHT22;18022;45.492;11.548;2023-07-30T05:15:55;22.40;99.90
31391;DHT22;18022;45.492;11.548;2023-07-30T05:18:20;22.40;99.90
31391;DHT22;18022;45.492;11.548;2023-07-30T05:20:46;22.40;99.90
31391;DHT22;18022;45.492;11.548;2023-07-30T05:23:12;22.40;99.90
31391;DHT22;18022;45.492;11.548;2023-07-30T05:25:38;22.30;99.90
31391;DHT22;18022;45.492;11.548;2023-07-30T05:28:03;22.40;99.90
31391;DHT22;18022;45.492;11.548;2023-07-30T05:30:29;22.40;99.90
31391;DHT22;18022;45.492;11.548;2023-07-30T05:32:55;22.50;99.90
31391;DHT22;18022;45.492;11.548;2023-07-30T05:35:20;22.60;99.90
31391;DHT22;18022;45.492;11.548;2023-07-30T05:37:47;22.50;99.90
31391;DHT22;18022;45.492;11.548;2023-07-30T05:40:12;22.60;99.90
31391;DHT22;18022;45.492;11.548;2023-07-30T05:42:38;22.60;99.90
31391;DHT22;18022;45.492;11.548;2023-07-30T05:45:04;22.60;99.90
31391;DHT22;18022;45.492;11.548;2023-07-30T05:47:30;22.60;99.90
31391;DHT22;18022;45.492;11.548;2023-07-30T05:49:56;22.70;99.90
31391;DHT22;18022;45.492;11.548;2023-07-30T05:52:21;22.70;99.90
31391;DHT22;18022;45.492;11.548;2023-07-30T05:54:47;22.70;99.90
31391;DHT22;18022;45.492;11.548;2023-07-30T05:57:13;22.70;99.90
31391;DHT22;18022;45.492;11.548;2023-07-30T05:59:38;22.70;99.90
31391;DHT22;18022;45.492;11.548;2023-07-30T06:02:04;22.70;99.90
31391;DHT22;18022;45.492;11.548;2023-07-30T06:04:30;22.70;99.90
31391;DHT22;18022;45.492;11.548;2023-07-30T06:06:57;22.80;99.90
31391;DHT22;18022;45.492;11.548;2023-07-30T06:09:23;22.70;99.90
31391;DHT22;18022;45.492;11.548;2023-07-30T06:11:49;22.90;99.90
31391;DHT22;18022;45.492;11.548;2023-07-30T06:14:14;22.90;99.90
31391;DHT22;18022;45.492;11.548;2023-07-30T06:16:40;23.00;99.90
31391;DHT22;18022;45.492;11.548;2023-07-30T06:19:06;23.10;99.90
31391;DHT22;18022;45.492;11.548;2023-07-30T06:21:31;23.00;99.90
31391;DHT22;18022;45.492;11.548;2023-07-30T06:23:57;23.00;99.90
31391;DHT22;18022;45.492;11.548;2023-07-30T06:26:23;23.00;99.90
31391;DHT22;18022;45.492;11.548;2023-07-30T06:28:49;23.00;99.90
31391;DHT22;18022;45.492;11.548;2023-07-30T06:31:14;23.10;99.90
31391;DHT22;18022;45.492;11.548;2023-07-30T06:33:40;23.10;99.90
31391;DHT22;18022;45.492;11.548;2023-07-30T06:36:06;23.10;99.90
31391;DHT22;18022;45.492;11.548;2023-07-30T06:38:31;23.20;99.90
31391;DHT22;18022;45.492;11.548;2023-07-30T06:40:57;23.20;99.90
31391;DHT22;18022;45.492;11.548;2023-07-30T06:43:23;23.30;99.90
31391;DHT22;18022;45.492;11.548;2023-07-30T06:45:49;23.30;99.90
31391;DHT22;18022;45.492;11.548;2023-07-30T06:48:15;23.30;99.90
31391;DHT22;18022;45.492;11.548;2023-07-30T06:50:41;23.30;99.90
31391;DHT22;18022;45.492;11.548;2023-07-30T06:53:07;23.30;99.90
31391;DHT22;18022;45.492;11.548;2023-07-30T06:55:33;23.40;99.90
31391;DHT22;18022;45.492;11.548;2023-07-30T06:57:59;23.40;99.90
31391;DHT22;18022;45.492;11.548;2023-07-30T07:00:24;23.50;99.90
31391;DHT22;18022;45.492;11.548;2023-07-30T07:02:50;23.50;99.90
31391;DHT22;18022;45.492;11.548;2023-07-30T07:05:16;23.40;99.90
31391;DHT22;18022;45.492;11.548;2023-07-30T07:07:42;23.40;99.90
31391;DHT22;18022;45.492;11.548;2023-07-30T07:10:08;23.40;99.90
31391;DHT22;18022;45.492;11.548;2023-07-30T07:12:36;23.30;99.90
31391;DHT22;18022;45.492;11.548;2023-07-30T07:15:04;23.50;99.90
31391;DHT22;18022;45.492;11.548;2023-07-30T07:17:30;23.60;99.90
31391;DHT22;18022;45.492;11.548;2023-07-30T07:19:57;23.50;99.90
31391;DHT22;18022;45.492;11.548;2023-07-30T07:22:23;23.60;99.90
31391;DHT22;18022;45.492;11.548;2023-07-30T07:24:49;23.60;99.90
31391;DHT22;18022;45.492;11.548;2023-07-30T07:27:18;23.60;99.90
31391;DHT22;18022;45.492;11.548;2023-07-30T07:29:43;23.60;99.90
31391;DHT22;18022;45.492;11.548;2023-07-30T07:32:09;23.40;99.90
31391;DHT22;18022;45.492;11.548;2023-07-30T07:34:35;23.50;99.90
31391;DHT22;18022;45.492;11.548;2023-07-30T07:37:02;23.60;99.90
31391;DHT22;18022;45.492;11.548;2023-07-30T07:39:28;23.60;99.90
31391;DHT22;18022;45.492;11.548;2023-07-30T07:41:54;23.80;99.90
31391;DHT22;18022;45.492;11.548;2023-07-30T07:44:20;23.90;99.90
31391;DHT22;18022;45.492;11.548;2023-07-30T07:46:47;23.80;99.90
31391;DHT22;18022;45.492;11.548;2023-07-30T07:49:13;23.90;99.90
31391;DHT22;18022;45.492;11.548;2023-07-30T07:51:38;24.10;99.90
31391;DHT22;18022;45.492;11.548;2023-07-30T07:54:04;24.10;99.90
31391;DHT22;18022;45.492;11.548;2023-07-30T07:56:31;24.20;99.90
31391;DHT22;18022;45.492;11.548;2023-07-30T07:58:57;24.10;99.90
31391;DHT22;18022;45.492;11.548;2023-07-30T08:01:23;24.10;99.90
31391;DHT22;18022;45.492;11.548;2023-07-30T08:03:48;24.10;99.90
31391;DHT22;18022;45.492;11.548;2023-07-30T08:06:14;24.20;99.90
31391;DHT22;18022;45.492;11.548;2023-07-30T08:08:40;24.20;99.90
31391;DHT22;18022;45.492;11.548;2023-07-30T08:11:06;24.40;99.90
31391;DHT22;18022;45.492;11.548;2023-07-30T08:13:33;24.30;99.90
31391;DHT22;18022;45.492;11.548;2023-07-30T08:15:58;24.40;99.90
31391;DHT22;18022;45.492;11.548;2023-07-30T08:18:24;24.40;99.90
31391;DHT22;18022;45.492;11.548;2023-07-30T08:20:50;24.60;99.90
31391;DHT22;18022;45.492;11.548;2023-07-30T08:23:16;24.50;99.90
31391;DHT22;18022;45.492;11.548;2023-07-30T08:25:41;24.50;99.90
31391;DHT22;18022;45.492;11.548;2023-07-30T08:28:07;24.30;99.90
31391;DHT22;18022;45.492;11.548;2023-07-30T08:30:33;24.40;99.90
31391;DHT22;18022;45.492;11.548;2023-07-30T08:32:59;24.40;99.90
31391;DHT22;18022;45.492;11.548;2023-07-30T08:35:24;24.50;99.90
31391;DHT22;18022;45.492;11.548;2023-07-30T08:37:52;24.60;99.90
31391;DHT22;18022;45.492;11.548;2023-07-30T08:40:18;24.60;99.90
31391;DHT22;18022;45.492;11.548;2023-07-30T08:42:43;24.60;99.90
31391;DHT22;18022;45.492;11.548;2023-07-30T08:45:09;24.80;99.90
31391;DHT22;18022;45.492;11.548;2023-07-30T08:47:35;24.80;99.90
31391;DHT22;18022;45.492;11.548;2023-07-30T08:50:02;25.00;99.90
31391;DHT22;18022;45.492;11.548;2023-07-30T08:52:29;25.20;99.90
31391;DHT22;18022;45.492;11.548;2023-07-30T08:54:57;25.20;99.90
31391;DHT22;18022;45.492;11.548;2023-07-30T08:57:24;25.20;99.90
31391;DHT22;18022;45.492;11.548;2023-07-30T08:59:58;25.30;99.90
31391;DHT22;18022;45.492;11.548;2023-07-30T09:02:53;25.30;99.90
31391;DHT22;18022;45.492;11.548;2023-07-30T09:05:22;25.30;99.90
31391;DHT22;18022;45.492;11.548;2023-07-30T09:07:48;25.60;99.90
31391;DHT22;18022;45.492;11.548;2023-07-30T09:10:14;25.70;99.90
31391;DHT22;18022;45.492;11.548;2023-07-30T09:12:41;25.60;99.90
31391;DHT22;18022;45.492;11.548;2023-07-30T09:15:07;25.70;99.90
31391;DHT22;18022;45.492;11.548;2023-07-30T09:17:33;25.80;99.90
31391;DHT22;18022;45.492;11.548;2023-07-30T09:20:05;25.80;99.90
31391;DHT22;18022;45.492;11.548;2023-07-30T09:22:33;25.70;99.90
31391;DHT22;18022;45.492;11.548;2023-07-30T09:25:02;25.80;99.90
31391;DHT22;18022;45.492;11.548;2023-07-30T09:27:29;25.60;99.90
31391;DHT22;18022;45.492;11.548;2023-07-30T09:29:57;25.70;99.90
31391;DHT22;18022;45.492;11.548;2023-07-30T09:32:31;25.80;99.90
31391;DHT22;18022;45.492;11.548;2023-07-30T09:35:08;26.10;99.90
31391;DHT22;18022;45.492;11.548;2023-07-30T09:37:39;26.30;99.90
31391;DHT22;18022;45.492;11.548;2023-07-30T09:40:13;26.40;99.90
31391;DHT22;18022;45.492;11.548;2023-07-30T09:42:43;26.30;99.90
31391;DHT22;18022;45.492;11.548;2023-07-30T09:45:23;26.20;99.90
31391;DHT22;18022;45.492;11.548;2023-07-30T09:47:50;26.30;99.90
31391;DHT22;18022;45.492;11.548;2023-07-30T09:50:16;26.40;99.90
31391;DHT22;18022;45.492;11.548;2023-07-30T09:52:43;26.50;99.90
31391;DHT22;18022;45.492;11.548;2023-07-30T09:55:10;26.70;99.90
31391;DHT22;18022;45.492;11.548;2023-07-30T09:57:39;26.90;99.90
31391;DHT22;18022;45.492;11.548;2023-07-30T10:00:05;27.10;99.90
31391;DHT22;18022;45.492;11.548;2023-07-30T10:02:37;27.20;99.90
31391;DHT22;18022;45.492;11.548;2023-07-30T10:05:03;27.30;99.90
31391;DHT22;18022;45.492;11.548;2023-07-30T10:07:31;27.40;99.90
31391;DHT22;18022;45.492;11.548;2023-07-30T10:10:00;27.50;99.90
31391;DHT22;18022;45.492;11.548;2023-07-30T10:12:31;27.20;99.90
31391;DHT22;18022;45.492;11.548;2023-07-30T10:14:57;27.00;99.90
31391;DHT22;18022;45.492;11.548;2023-07-30T10:17:23;26.90;99.90
31391;DHT22;18022;45.492;11.548;2023-07-30T10:19:49;27.10;99.90
31391;DHT22;18022;45.492;11.548;2023-07-30T10:25:02;27.00;99.90
31391;DHT22;18022;45.492;11.548;2023-07-30T10:27:37;27.20;99.90
31391;DHT22;18022;45.492;11.548;2023-07-30T10:30:14;27.40;99.90
31391;DHT22;18022;45.492;11.548;2023-07-30T10:32:41;27.60;99.90
31391;DHT22;18022;45.492;11.548;2023-07-30T10:35:07;27.60;99.90
31391;DHT22;18022;45.492;11.548;2023-07-30T10:37:33;27.80;99.90
31391;DHT22;18022;45.492;11.548;2023-07-30T10:39:58;27.50;99.90
31391;DHT22;18022;45.492;11.548;2023-07-30T10:42:33;27.30;99.90
31391;DHT22;18022;45.492;11.548;2023-07-30T10:44:59;27.70;99.90
31391;DHT22;18022;45.492;11.548;2023-07-30T10:47:27;27.20;99.90
31391;DHT22;18022;45.492;11.548;2023-07-30T10:49:53;26.80;99.90
31391;DHT22;18022;45.492;11.548;2023-07-30T10:52:24;26.80;99.90
31391;DHT22;18022;45.492;11.548;2023-07-30T10:54:59;27.10;99.90
31391;DHT22;18022;45.492;11.548;2023-07-30T10:57:32;27.20;99.90
31391;DHT22;18022;45.492;11.548;2023-07-30T10:59:59;27.20;99.90
31391;DHT22;18022;45.492;11.548;2023-07-30T11:02:25;27.40;99.90
31391;DHT22;18022;45.492;11.548;2023-07-30T11:04:51;27.70;99.90
31391;DHT22;18022;45.492;11.548;2023-07-30T11:07:17;27.40;99.90
31391;DHT22;18022;45.492;11.548;2023-07-30T11:09:44;27.40;99.90
31391;DHT22;18022;45.492;11.548;2023-07-30T11:12:10;27.60;99.90
31391;DHT22;18022;45.492;11.548;2023-07-30T11:14:36;27.70;99.90
31391;DHT22;18022;45.492;11.548;2023-07-30T11:17:02;27.80;99.90
31391;DHT22;18022;45.492;11.548;2023-07-30T11:19:29;28.00;99.90
31391;DHT22;18022;45.492;11.548;2023-07-30T11:21:56;27.90;99.90
31391;DHT22;18022;45.492;11.548;2023-07-30T11:24:35;27.90;99.90
31391;DHT22;18022;45.492;11.548;2023-07-30T11:27:01;28.10;99.90
31391;DHT22;18022;45.492;11.548;2023-07-30T11:29:27;28.10;99.90
31391;DHT22;18022;45.492;11.548;2023-07-30T11:31:57;28.50;99.90
31391;DHT22;18022;45.492;11.548;2023-07-30T11:34:23;28.70;99.90
31391;DHT22;18022;45.492;11.548;2023-07-30T11:36:49;28.30;99.90
31391;DHT22;18022;45.492;11.548;2023-07-30T11:39:15;28.20;99.90
31391;DHT22;18022;45.492;11.548;2023-07-30T11:41:41;27.90;99.90
31391;DHT22;18022;45.492;11.548;2023-07-30T11:44:07;28.30;99.90
31391;DHT22;18022;45.492;11.548;2023-07-30T11:46:33;28.50;99.90
31391;DHT22;18022;45.492;11.548;2023-07-30T11:49:15;28.50;99.90
31391;DHT22;18022;45.492;11.548;2023-07-30T11:51:42;28.50;99.90
31391;DHT22;18022;45.492;11.548;2023-07-30T11:54:21;28.70;99.90
31391;DHT22;18022;45.492;11.548;2023-07-30T11:56:56;28.90;99.90
31391;DHT22;18022;45.492;11.548;2023-07-30T11:59:22;29.20;99.90
31391;DHT22;18022;45.492;11.548;2023-07-30T12:01:48;29.20;99.90
31391;DHT22;18022;45.492;11.548;2023-07-30T12:04:14;29.30;99.90
31391;DHT22;18022;45.492;11.548;2023-07-30T12:06:48;29.10;99.90
31391;DHT22;18022;45.492;11.548;2023-07-30T12:09:18;29.10;99.90
31391;DHT22;18022;45.492;11.548;2023-07-30T12:12:00;29.20;99.90
31391;DHT22;18022;45.492;11.548;2023-07-30T12:17:14;29.10;99.90
31391;DHT22;18022;45.492;11.548;2023-07-30T12:19:41;29.30;99.90
31391;DHT22;18022;45.492;11.548;2023-07-30T12:22:07;29.20;99.90
31391;DHT22;18022;45.492;11.548;2023-07-30T12:24:32;29.20;99.90
31391;DHT22;18022;45.492;11.548;2023-07-30T12:26:59;29.20;99.90
31391;DHT22;18022;45.492;11.548;2023-07-30T12:29:25;29.30;99.90
31391;DHT22;18022;45.492;11.548;2023-07-30T12:31:51;29.40;99.90
31391;DHT22;18022;45.492;11.548;2023-07-30T12:34:22;29.60;99.90
31391;DHT22;18022;45.492;11.548;2023-07-30T12:36:48;29.60;99.90
31391;DHT22;18022;45.492;11.548;2023-07-30T12:39:14;29.70;99.90
31391;DHT22;18022;45.492;11.548;2023-07-30T12:41:40;29.60;99.90
31391;DHT22;18022;45.492;11.548;2023-07-30T12:44:06;29.50;99.90
31391;DHT22;18022;45.492;11.548;2023-07-30T12:46:32;29.60;99.90
31391;DHT22;18022;45.492;11.548;2023-07-30T12:48:58;29.70;99.90
31391;DHT22;18022;45.492;11.548;2023-07-30T12:51:30;29.60;99.90
31391;DHT22;18022;45.492;11.548;2023-07-30T12:53:56;29.30;99.90
31391;DHT22;18022;45.492;11.548;2023-07-30T12:56:21;29.60;99.90
31391;DHT22;18022;45.492;11.548;2023-07-30T12:58:47;29.60;99.90
31391;DHT22;18022;45.492;11.548;2023-07-30T13:01:13;29.80;99.90
31391;DHT22;18022;45.492;11.548;2023-07-30T13:03:38;29.80;99.90
31391;DHT22;18022;45.492;11.548;2023-07-30T13:06:05;29.70;99.90
31391;DHT22;18022;45.492;11.548;2023-07-30T13:08:30;29.60;99.90
31391;DHT22;18022;45.492;11.548;2023-07-30T13:10:56;29.30;99.90
31391;DHT22;18022;45.492;11.548;2023-07-30T13:13:22;29.40;99.90
31391;DHT22;18022;45.492;11.548;2023-07-30T13:15:49;29.50;99.90
31391;DHT22;18022;45.492;11.548;2023-07-30T13:18:15;29.70;99.90
31391;DHT22;18022;45.492;11.548;2023-07-30T13:20:40;29.90;99.90
31391;DHT22;18022;45.492;11.548;2023-07-30T13:23:06;29.90;99.90
31391;DHT22;18022;45.492;11.548;2023-07-30T13:25:32;30.00;99.90
31391;DHT22;18022;45.492;11.548;2023-07-30T13:27:58;29.80;99.90
31391;DHT22;18022;45.492;11.548;2023-07-30T13:30:23;29.80;99.90
31391;DHT22;18022;45.492;11.548;2023-07-30T13:32:49;29.80;99.90
31391;DHT22;18022;45.492;11.548;2023-07-30T13:35:15;30.00;99.90
31391;DHT22;18022;45.492;11.548;2023-07-30T13:37:40;30.10;99.90
31391;DHT22;18022;45.492;11.548;2023-07-30T13:40:07;30.10;99.90
31391;DHT22;18022;45.492;11.548;2023-07-30T13:42:33;30.20;99.90
31391;DHT22;18022;45.492;11.548;2023-07-30T13:44:58;30.30;99.90
31391;DHT22;18022;45.492;11.548;2023-07-30T13:47:25;30.10;99.90
31391;DHT22;18022;45.492;11.548;2023-07-30T13:49:51;30.00;99.90
31391;DHT22;18022;45.492;11.548;2023-07-30T13:52:17;29.90;99.90
31391;DHT22;18022;45.492;11.548;2023-07-30T13:54:43;29.90;99.90
31391;DHT22;18022;45.492;11.548;2023-07-30T13:57:10;30.00;99.90
31391;DHT22;18022;45.492;11.548;2023-07-30T13:59:36;30.00;99.90
31391;DHT22;18022;45.492;11.548;2023-07-30T14:02:03;30.00;99.90
31391;DHT22;18022;45.492;11.548;2023-07-30T14:04:28;30.20;99.90
31391;DHT22;18022;45.492;11.548;2023-07-30T14:06:54;30.20;99.90
31391;DHT22;18022;45.492;11.548;2023-07-30T14:09:20;30.40;99.90
31391;DHT22;18022;45.492;11.548;2023-07-30T14:11:45;30.30;99.90
31391;DHT22;18022;45.492;11.548;2023-07-30T14:14:12;30.20;99.90
31391;DHT22;18022;45.492;11.548;2023-07-30T14:16:38;30.10;99.90
31391;DHT22;18022;45.492;11.548;2023-07-30T14:19:03;30.10;99.90
31391;DHT22;18022;45.492;11.548;2023-07-30T14:21:29;30.10;99.90
31391;DHT22;18022;45.492;11.548;2023-07-30T14:23:55;30.00;99.90
31391;DHT22;18022;45.492;11.548;2023-07-30T14:26:20;30.10;99.90
31391;DHT22;18022;45.492;11.548;2023-07-30T14:28:46;29.80;99.90
31391;DHT22;18022;45.492;11.548;2023-07-30T14:31:14;29.90;99.90
31391;DHT22;18022;45.492;11.548;2023-07-30T14:33:40;30.00;99.90
31391;DHT22;18022;45.492;11.548;2023-07-30T14:36:06;29.90;99.90
31391;DHT22;18022;45.492;11.548;2023-07-30T14:38:32;29.90;99.90
31391;DHT22;18022;45.492;11.548;2023-07-30T14:41:00;29.90;99.90
31391;DHT22;18022;45.492;11.548;2023-07-30T14:43:25;29.90;99.90
31391;DHT22;18022;45.492;11.548;2023-07-30T14:45:51;30.00;99.90
31391;DHT22;18022;45.492;11.548;2023-07-30T14:48:17;30.00;99.90
31391;DHT22;18022;45.492;11.548;2023-07-30T14:50:42;29.90;99.90
31391;DHT22;18022;45.492;11.548;2023-07-30T14:53:08;29.80;99.90
31391;DHT22;18022;45.492;11.548;2023-07-30T14:55:34;29.80;99.90
31391;DHT22;18022;45.492;11.548;2023-07-30T14:58:00;29.90;99.90
31391;DHT22;18022;45.492;11.548;2023-07-30T15:00:26;29.80;99.90
31391;DHT22;18022;45.492;11.548;2023-07-30T15:02:52;29.90;99.90
31391;DHT22;18022;45.492;11.548;2023-07-30T15:05:18;29.90;99.90
31391;DHT22;18022;45.492;11.548;2023-07-30T15:07:44;29.90;99.90
31391;DHT22;18022;45.492;11.548;2023-07-30T15:10:10;29.90;99.90
31391;DHT22;18022;45.492;11.548;2023-07-30T15:12:36;29.80;99.90
31391;DHT22;18022;45.492;11.548;2023-07-30T15:15:03;29.90;99.90
31391;DHT22;18022;45.492;11.548;2023-07-30T15:17:29;29.90;99.90
31391;DHT22;18022;45.492;11.548;2023-07-30T15:19:55;29.90;99.90